Purdon, Texas
Current Conditions -  °F | °C
As of 10:53 AM on Friday 28 Nov 2014 (Local Time) from KCRS Reporting Station
Clear Clear  
Wind Chill: 62°   Ceiling: Unl
Heat Index: 62°   Visibility: 10mi
Dew Point: 44°   Wind: 18mph
Humidity: 52%   Direction: 190°S
Pressure: 30.27"   Gusts: 24mph
Location:  31.95°N, 96.62°W
Report Text: KCRS 281653Z AUTO 19016G21KT 10SM CLR 17/07 A3027 RMK AO2 SLP249 T01670067
Loading
Personal Weather Stations






























Interactive Weather Map New forecast layout! Learn more

10-Day Weather Forecast

Advertisements
Track Severe Weather on mobile